sensor_id;sensor_type;location;lat;lon;timestamp;P1;durP1;ratioP1;P2;durP2;ratioP2
35110;SDS011;21290;50.158;8.658;2023-10-09T00:02:12;12.40;;;4.15;;
35110;SDS011;21290;50.158;8.658;2023-10-09T00:04:41;6.00;;;3.53;;
35110;SDS011;21290;50.158;8.658;2023-10-09T00:07:09;8.52;;;3.25;;
35110;SDS011;21290;50.158;8.658;2023-10-09T00:09:37;7.78;;;3.72;;
35110;SDS011;21290;50.158;8.658;2023-10-09T00:12:18;11.45;;;3.47;;
35110;SDS011;21290;50.158;8.658;2023-10-09T00:14:50;7.00;;;3.78;;
35110;SDS011;21290;50.158;8.658;2023-10-09T00:17:34;8.45;;;3.42;;
35110;SDS011;21290;50.158;8.658;2023-10-09T00:20:01;10.27;;;3.97;;
35110;SDS011;21290;50.158;8.658;2023-10-09T00:22:43;10.45;;;4.10;;
35110;SDS011;21290;50.158;8.658;2023-10-09T00:25:12;8.02;;;3.53;;
35110;SDS011;21290;50.158;8.658;2023-10-09T00:27:47;8.77;;;3.92;;
35110;SDS011;21290;50.158;8.658;2023-10-09T00:30:17;4.97;;;3.63;;
35110;SDS011;21290;50.158;8.658;2023-10-09T00:32:45;5.43;;;3.53;;
35110;SDS011;21290;50.158;8.658;2023-10-09T00:35:26;10.50;;;3.67;;
35110;SDS011;21290;50.158;8.658;2023-10-09T00:38:04;9.85;;;3.80;;
35110;SDS011;21290;50.158;8.658;2023-10-09T00:40:48;8.43;;;3.78;;
35110;SDS011;21290;50.158;8.658;2023-10-09T00:43:34;10.30;;;4.10;;
35110;SDS011;21290;50.158;8.658;2023-10-09T00:46:04;8.52;;;3.95;;
35110;SDS011;21290;50.158;8.658;2023-10-09T00:49:01;7.85;;;3.90;;
35110;SDS011;21290;50.158;8.658;2023-10-09T00:51:29;11.93;;;4.38;;
35110;SDS011;21290;50.158;8.658;2023-10-09T00:54:04;10.45;;;5.03;;
35110;SDS011;21290;50.158;8.658;2023-10-09T00:56:41;10.02;;;3.78;;
35110;SDS011;21290;50.158;8.658;2023-10-09T00:59:18;5.95;;;3.47;;
35110;SDS011;21290;50.158;8.658;2023-10-09T01:01:46;8.20;;;4.30;;
35110;SDS011;21290;50.158;8.658;2023-10-09T01:04:24;13.18;;;4.65;;
35110;SDS011;21290;50.158;8.658;2023-10-09T01:06:52;10.85;;;4.97;;
35110;SDS011;21290;50.158;8.658;2023-10-09T01:09:39;5.38;;;3.50;;
35110;SDS011;21290;50.158;8.658;2023-10-09T01:12:10;10.05;;;4.20;;
35110;SDS011;21290;50.158;8.658;2023-10-09T01:14:44;9.57;;;3.45;;
35110;SDS011;21290;50.158;8.658;2023-10-09T01:17:11;7.28;;;3.80;;
35110;SDS011;21290;50.158;8.658;2023-10-09T01:19:38;6.85;;;3.58;;
35110;SDS011;21290;50.158;8.658;2023-10-09T01:22:04;7.13;;;3.53;;
35110;SDS011;21290;50.158;8.658;2023-10-09T01:24:39;8.90;;;4.10;;
35110;SDS011;21290;50.158;8.658;2023-10-09T01:27:06;4.68;;;3.38;;
35110;SDS011;21290;50.158;8.658;2023-10-09T01:29:41;11.48;;;3.58;;
35110;SDS011;21290;50.158;8.658;2023-10-09T01:32:10;5.60;;;3.58;;
35110;SDS011;21290;50.158;8.658;2023-10-09T01:34:43;6.32;;;3.25;;
35110;SDS011;21290;50.158;8.658;2023-10-09T01:37:12;7.43;;;3.97;;
35110;SDS011;21290;50.158;8.658;2023-10-09T01:39:50;8.55;;;4.35;;
35110;SDS011;21290;50.158;8.658;2023-10-09T01:42:18;9.97;;;4.20;;
35110;SDS011;21290;50.158;8.658;2023-10-09T01:45:01;9.13;;;4.53;;
35110;SDS011;21290;50.158;8.658;2023-10-09T01:47:37;9.18;;;4.32;;
35110;SDS011;21290;50.158;8.658;2023-10-09T01:50:04;8.68;;;4.10;;
35110;SDS011;21290;50.158;8.658;2023-10-09T01:52:37;11.15;;;3.95;;
35110;SDS011;21290;50.158;8.658;2023-10-09T01:55:05;7.40;;;4.07;;
35110;SDS011;21290;50.158;8.658;2023-10-09T01:57:35;8.93;;;3.83;;
35110;SDS011;21290;50.158;8.658;2023-10-09T02:00:05;7.95;;;3.72;;
35110;SDS011;21290;50.158;8.658;2023-10-09T02:02:33;7.83;;;4.13;;
35110;SDS011;21290;50.158;8.658;2023-10-09T02:05:01;9.35;;;3.97;;
35110;SDS011;21290;50.158;8.658;2023-10-09T02:07:49;7.32;;;3.30;;
35110;SDS011;21290;50.158;8.658;2023-10-09T02:10:19;8.32;;;3.90;;
35110;SDS011;21290;50.158;8.658;2023-10-09T02:12:48;8.38;;;4.35;;
35110;SDS011;21290;50.158;8.658;2023-10-09T02:15:30;7.60;;;4.03;;
35110;SDS011;21290;50.158;8.658;2023-10-09T02:18:16;9.82;;;3.90;;
35110;SDS011;21290;50.158;8.658;2023-10-09T02:21:05;8.73;;;3.65;;
35110;SDS011;21290;50.158;8.658;2023-10-09T02:23:33;5.95;;;3.45;;
35110;SDS011;21290;50.158;8.658;2023-10-09T02:26:12;6.70;;;4.13;;
35110;SDS011;21290;50.158;8.658;2023-10-09T02:28:52;14.68;;;4.28;;
35110;SDS011;21290;50.158;8.658;2023-10-09T02:31:26;6.47;;;3.60;;
35110;SDS011;21290;50.158;8.658;2023-10-09T02:34:02;6.45;;;4.03;;
35110;SDS011;21290;50.158;8.658;2023-10-09T02:36:31;5.18;;;3.30;;
35110;SDS011;21290;50.158;8.658;2023-10-09T02:38:57;9.35;;;4.28;;
35110;SDS011;21290;50.158;8.658;2023-10-09T02:41:25;8.50;;;4.10;;
35110;SDS011;21290;50.158;8.658;2023-10-09T02:43:55;8.57;;;4.40;;
35110;SDS011;21290;50.158;8.658;2023-10-09T02:46:21;5.40;;;3.63;;
35110;SDS011;21290;50.158;8.658;2023-10-09T02:48:56;6.43;;;3.83;;
35110;SDS011;21290;50.158;8.658;2023-10-09T02:51:30;8.88;;;4.07;;
35110;SDS011;21290;50.158;8.658;2023-10-09T02:53:59;19.27;;;4.40;;
35110;SDS011;21290;50.158;8.658;2023-10-09T02:56:37;8.70;;;4.20;;
35110;SDS011;21290;50.158;8.658;2023-10-09T02:59:07;12.57;;;4.53;;
35110;SDS011;21290;50.158;8.658;2023-10-09T03:01:34;11.20;;;3.42;;
35110;SDS011;21290;50.158;8.658;2023-10-09T03:06:32;7.85;;;4.40;;
35110;SDS011;21290;50.158;8.658;2023-10-09T03:09:01;7.80;;;4.25;;
35110;SDS011;21290;50.158;8.658;2023-10-09T03:11:46;8.30;;;4.60;;
35110;SDS011;21290;50.158;8.658;2023-10-09T03:14:23;6.32;;;4.35;;
35110;SDS011;21290;50.158;8.658;2023-10-09T03:16:52;8.75;;;4.57;;
35110;SDS011;21290;50.158;8.658;2023-10-09T03:19:19;6.88;;;4.30;;
35110;SDS011;21290;50.158;8.658;2023-10-09T03:21:46;7.95;;;4.40;;
35110;SDS011;21290;50.158;8.658;2023-10-09T03:24:13;14.02;;;4.50;;
35110;SDS011;21290;50.158;8.658;2023-10-09T03:26:40;9.35;;;4.45;;
35110;SDS011;21290;50.158;8.658;2023-10-09T03:29:06;10.25;;;4.18;;
35110;SDS011;21290;50.158;8.658;2023-10-09T03:31:36;8.73;;;3.90;;
35110;SDS011;21290;50.158;8.658;2023-10-09T03:34:04;7.90;;;4.22;;
35110;SDS011;21290;50.158;8.658;2023-10-09T03:36:31;11.90;;;4.72;;
35110;SDS011;21290;50.158;8.658;2023-10-09T03:39:04;7.05;;;4.15;;
35110;SDS011;21290;50.158;8.658;2023-10-09T03:41:44;7.35;;;4.03;;
35110;SDS011;21290;50.158;8.658;2023-10-09T03:44:14;7.75;;;4.03;;
35110;SDS011;21290;50.158;8.658;2023-10-09T03:46:44;8.63;;;4.10;;
35110;SDS011;21290;50.158;8.658;2023-10-09T03:49:12;7.18;;;4.05;;
35110;SDS011;21290;50.158;8.658;2023-10-09T03:51:39;5.10;;;3.63;;
35110;SDS011;21290;50.158;8.658;2023-10-09T03:54:08;7.68;;;4.40;;
35110;SDS011;21290;50.158;8.658;2023-10-09T03:56:35;7.45;;;4.13;;
35110;SDS011;21290;50.158;8.658;2023-10-09T03:59:02;10.30;;;4.38;;
35110;SDS011;21290;50.158;8.658;2023-10-09T04:01:31;6.72;;;4.30;;
35110;SDS011;21290;50.158;8.658;2023-10-09T04:04:06;10.65;;;4.10;;
35110;SDS011;21290;50.158;8.658;2023-10-09T04:06:37;8.20;;;4.10;;
35110;SDS011;21290;50.158;8.658;2023-10-09T04:09:04;8.10;;;4.30;;
35110;SDS011;21290;50.158;8.658;2023-10-09T04:11:54;7.97;;;4.75;;
35110;SDS011;21290;50.158;8.658;2023-10-09T04:14:39;8.13;;;4.35;;
35110;SDS011;21290;50.158;8.658;2023-10-09T04:17:21;13.68;;;7.70;;
35110;SDS011;21290;50.158;8.658;2023-10-09T04:19:48;21.30;;;8.77;;
35110;SDS011;21290;50.158;8.658;2023-10-09T04:22:35;17.50;;;8.77;;
35110;SDS011;21290;50.158;8.658;2023-10-09T04:25:06;18.30;;;9.20;;
35110;SDS011;21290;50.158;8.658;2023-10-09T04:27:54;21.08;;;9.90;;
35110;SDS011;21290;50.158;8.658;2023-10-09T04:30:43;26.50;;;10.18;;
35110;SDS011;21290;50.158;8.658;2023-10-09T04:33:12;22.23;;;9.48;;
35110;SDS011;21290;50.158;8.658;2023-10-09T04:35:55;22.55;;;11.48;;
35110;SDS011;21290;50.158;8.658;2023-10-09T04:38:48;21.20;;;11.20;;
35110;SDS011;21290;50.158;8.658;2023-10-09T04:41:30;23.10;;;11.02;;
35110;SDS011;21290;50.158;8.658;2023-10-09T04:44:18;21.80;;;11.67;;
35110;SDS011;21290;50.158;8.658;2023-10-09T04:46:47;22.20;;;10.63;;
35110;SDS011;21290;50.158;8.658;2023-10-09T04:49:47;19.73;;;10.02;;
35110;SDS011;21290;50.158;8.658;2023-10-09T04:52:23;16.30;;;9.98;;
35110;SDS011;21290;50.158;8.658;2023-10-09T04:54:56;22.13;;;10.45;;
35110;SDS011;21290;50.158;8.658;2023-10-09T04:57:42;16.83;;;9.75;;
35110;SDS011;21290;50.158;8.658;2023-10-09T05:00:10;19.10;;;8.60;;
35110;SDS011;21290;50.158;8.658;2023-10-09T05:02:51;26.67;;;9.25;;
35110;SDS011;21290;50.158;8.658;2023-10-09T05:05:26;17.77;;;8.77;;
35110;SDS011;21290;50.158;8.658;2023-10-09T05:08:14;18.67;;;9.32;;
35110;SDS011;21290;50.158;8.658;2023-10-09T05:10:46;15.18;;;8.32;;
35110;SDS011;21290;50.158;8.658;2023-10-09T05:13:34;17.63;;;8.40;;
35110;SDS011;21290;50.158;8.658;2023-10-09T05:18:42;16.42;;;8.15;;
35110;SDS011;21290;50.158;8.658;2023-10-09T05:21:11;16.35;;;7.93;;
35110;SDS011;21290;50.158;8.658;2023-10-09T05:23:56;18.65;;;8.45;;
35110;SDS011;21290;50.158;8.658;2023-10-09T05:26:43;17.52;;;7.18;;
35110;SDS011;21290;50.158;8.658;2023-10-09T05:31:46;17.17;;;8.07;;
35110;SDS011;21290;50.158;8.658;2023-10-09T05:34:32;17.17;;;7.88;;
35110;SDS011;21290;50.158;8.658;2023-10-09T05:37:01;18.85;;;7.85;;
35110;SDS011;21290;50.158;8.658;2023-10-09T05:39:44;22.80;;;7.97;;
35110;SDS011;21290;50.158;8.658;2023-10-09T05:42:32;18.52;;;7.97;;
35110;SDS011;21290;50.158;8.658;2023-10-09T05:45:08;24.83;;;7.40;;
35110;SDS011;21290;50.158;8.658;2023-10-09T05:47:55;12.95;;;6.93;;
35110;SDS011;21290;50.158;8.658;2023-10-09T05:50:41;14.88;;;7.30;;
35110;SDS011;21290;50.158;8.658;2023-10-09T05:53:26;24.58;;;7.70;;
35110;SDS011;21290;50.158;8.658;2023-10-09T05:56:11;21.85;;;7.38;;
35110;SDS011;21290;50.158;8.658;2023-10-09T05:58:57;17.30;;;7.55;;
35110;SDS011;21290;50.158;8.658;2023-10-09T06:01:42;18.05;;;7.57;;
35110;SDS011;21290;50.158;8.658;2023-10-09T06:04:28;16.13;;;7.55;;
35110;SDS011;21290;50.158;8.658;2023-10-09T06:07:21;20.20;;;7.28;;
35110;SDS011;21290;50.158;8.658;2023-10-09T06:10:07;24.23;;;7.85;;
35110;SDS011;21290;50.158;8.658;2023-10-09T06:12:45;14.15;;;6.88;;
35110;SDS011;21290;50.158;8.658;2023-10-09T06:15:16;17.55;;;7.15;;
35110;SDS011;21290;50.158;8.658;2023-10-09T06:17:58;15.38;;;7.18;;
35110;SDS011;21290;50.158;8.658;2023-10-09T06:20:44;17.20;;;7.22;;
35110;SDS011;21290;50.158;8.658;2023-10-09T06:23:30;21.58;;;7.65;;
35110;SDS011;21290;50.158;8.658;2023-10-09T06:26:15;19.35;;;7.25;;
35110;SDS011;21290;50.158;8.658;2023-10-09T06:28:53;20.33;;;7.97;;
35110;SDS011;21290;50.158;8.658;2023-10-09T06:31:40;17.55;;;7.30;;
35110;SDS011;21290;50.158;8.658;2023-10-09T06:34:28;16.70;;;6.68;;
35110;SDS011;21290;50.158;8.658;2023-10-09T06:37:02;15.82;;;6.53;;
35110;SDS011;21290;50.158;8.658;2023-10-09T06:39:43;25.90;;;7.07;;
35110;SDS011;21290;50.158;8.658;2023-10-09T06:42:17;17.05;;;6.80;;
35110;SDS011;21290;50.158;8.658;2023-10-09T06:45:08;16.50;;;7.35;;
35110;SDS011;21290;50.158;8.658;2023-10-09T06:47:46;16.27;;;6.55;;
35110;SDS011;21290;50.158;8.658;2023-10-09T06:50:44;15.65;;;6.75;;
35110;SDS011;21290;50.158;8.658;2023-10-09T06:53:30;18.65;;;7.20;;
35110;SDS011;21290;50.158;8.658;2023-10-09T06:56:15;14.82;;;7.25;;
35110;SDS011;21290;50.158;8.658;2023-10-09T06:58:59;17.13;;;7.10;;
35110;SDS011;21290;50.158;8.658;2023-10-09T07:01:34;22.80;;;6.70;;
35110;SDS011;21290;50.158;8.658;2023-10-09T07:04:03;15.65;;;6.75;;
35110;SDS011;21290;50.158;8.658;2023-10-09T07:06:45;16.02;;;6.63;;
35110;SDS011;21290;50.158;8.658;2023-10-09T07:09:13;17.48;;;6.82;;
35110;SDS011;21290;50.158;8.658;2023-10-09T07:11:44;21.67;;;6.10;;
35110;SDS011;21290;50.158;8.658;2023-10-09T07:14:21;18.98;;;6.45;;
35110;SDS011;21290;50.158;8.658;2023-10-09T07:17:00;14.93;;;7.18;;
35110;SDS011;21290;50.158;8.658;2023-10-09T07:19:27;20.88;;;6.40;;
35110;SDS011;21290;50.158;8.658;2023-10-09T07:22:01;19.10;;;6.68;;
35110;SDS011;21290;50.158;8.658;2023-10-09T07:24:30;15.00;;;6.70;;
35110;SDS011;21290;50.158;8.658;2023-10-09T07:27:09;14.65;;;6.43;;
35110;SDS011;21290;50.158;8.658;2023-10-09T07:29:40;19.65;;;6.63;;
35110;SDS011;21290;50.158;8.658;2023-10-09T07:32:16;23.80;;;6.80;;
35110;SDS011;21290;50.158;8.658;2023-10-09T07:34:50;18.13;;;6.38;;
35110;SDS011;21290;50.158;8.658;2023-10-09T07:37:20;15.70;;;6.25;;
35110;SDS011;21290;50.158;8.658;2023-10-09T07:39:56;18.80;;;6.60;;
35110;SDS011;21290;50.158;8.658;2023-10-09T07:42:24;20.38;;;6.82;;
35110;SDS011;21290;50.158;8.658;2023-10-09T07:45:07;18.70;;;6.47;;
35110;SDS011;21290;50.158;8.658;2023-10-09T07:47:46;24.92;;;6.55;;
35110;SDS011;21290;50.158;8.658;2023-10-09T07:50:26;22.80;;;5.93;;
35110;SDS011;21290;50.158;8.658;2023-10-09T07:53:05;17.80;;;6.28;;
35110;SDS011;21290;50.158;8.658;2023-10-09T07:55:50;17.02;;;6.13;;
35110;SDS011;21290;50.158;8.658;2023-10-09T07:58:32;15.60;;;5.72;;
35110;SDS011;21290;50.158;8.658;2023-10-09T08:01:12;17.42;;;5.95;;
35110;SDS011;21290;50.158;8.658;2023-10-09T08:03:43;19.83;;;6.88;;
35110;SDS011;21290;50.158;8.658;2023-10-09T08:06:15;22.83;;;5.72;;
35110;SDS011;21290;50.158;8.658;2023-10-09T08:09:01;25.17;;;6.20;;
35110;SDS011;21290;50.158;8.658;2023-10-09T08:11:48;14.48;;;6.00;;
35110;SDS011;21290;50.158;8.658;2023-10-09T08:14:34;21.30;;;5.82;;
35110;SDS011;21290;50.158;8.658;2023-10-09T08:17:01;29.52;;;6.53;;
35110;SDS011;21290;50.158;8.658;2023-10-09T08:19:42;19.05;;;6.82;;
35110;SDS011;21290;50.158;8.658;2023-10-09T08:22:25;17.67;;;5.78;;
35110;SDS011;21290;50.158;8.658;2023-10-09T08:24:56;17.85;;;5.32;;
35110;SDS011;21290;50.158;8.658;2023-10-09T08:29:56;20.25;;;6.13;;
35110;SDS011;21290;50.158;8.658;2023-10-09T08:32:54;12.70;;;5.80;;
35110;SDS011;21290;50.158;8.658;2023-10-09T08:35:30;18.40;;;6.03;;
35110;SDS011;21290;50.158;8.658;2023-10-09T08:38:01;13.00;;;6.07;;
35110;SDS011;21290;50.158;8.658;2023-10-09T08:40:38;13.13;;;5.47;;
35110;SDS011;21290;50.158;8.658;2023-10-09T08:43:10;14.35;;;5.20;;
35110;SDS011;21290;50.158;8.658;2023-10-09T08:46:03;16.42;;;6.25;;
35110;SDS011;21290;50.158;8.658;2023-10-09T08:48:30;13.67;;;6.27;;
35110;SDS011;21290;50.158;8.658;2023-10-09T08:50:58;13.43;;;5.97;;
35110;SDS011;21290;50.158;8.658;2023-10-09T08:53:27;14.68;;;6.55;;
35110;SDS011;21290;50.158;8.658;2023-10-09T08:55:54;23.23;;;7.25;;
35110;SDS011;21290;50.158;8.658;2023-10-09T08:58:22;14.85;;;6.18;;
35110;SDS011;21290;50.158;8.658;2023-10-09T09:00:59;24.10;;;6.70;;
35110;SDS011;21290;50.158;8.658;2023-10-09T09:03:34;22.77;;;6.07;;
35110;SDS011;21290;50.158;8.658;2023-10-09T09:06:04;14.77;;;6.18;;
35110;SDS011;21290;50.158;8.658;2023-10-09T09:08:32;19.27;;;6.05;;
35110;SDS011;21290;50.158;8.658;2023-10-09T09:11:09;17.83;;;5.85;;
35110;SDS011;21290;50.158;8.658;2023-10-09T09:14:02;20.70;;;5.90;;
35110;SDS011;21290;50.158;8.658;2023-10-09T09:16:32;15.95;;;5.80;;
35110;SDS011;21290;50.158;8.658;2023-10-09T09:19:02;24.80;;;6.45;;
35110;SDS011;21290;50.158;8.658;2023-10-09T09:21:37;24.02;;;5.90;;
35110;SDS011;21290;50.158;8.658;2023-10-09T09:24:17;23.88;;;6.50;;
35110;SDS011;21290;50.158;8.658;2023-10-09T09:26:54;16.83;;;5.55;;
35110;SDS011;21290;50.158;8.658;2023-10-09T09:32:06;28.45;;;6.55;;
35110;SDS011;21290;50.158;8.658;2023-10-09T09:34:48;23.65;;;6.40;;
35110;SDS011;21290;50.158;8.658;2023-10-09T09:37:24;17.40;;;6.07;;
35110;SDS011;21290;50.158;8.658;2023-10-09T09:39:58;20.88;;;5.68;;
35110;SDS011;21290;50.158;8.658;2023-10-09T09:42:28;15.73;;;5.72;;
35110;SDS011;21290;50.158;8.658;2023-10-09T09:45:01;18.23;;;6.45;;
35110;SDS011;21290;50.158;8.658;2023-10-09T09:47:28;24.52;;;6.30;;
35110;SDS011;21290;50.158;8.658;2023-10-09T09:49:56;21.23;;;6.32;;
35110;SDS011;21290;50.158;8.658;2023-10-09T09:52:28;20.58;;;6.38;;
35110;SDS011;21290;50.158;8.658;2023-10-09T09:55:05;20.60;;;5.90;;
35110;SDS011;21290;50.158;8.658;2023-10-09T09:57:40;20.08;;;6.10;;
35110;SDS011;21290;50.158;8.658;2023-10-09T10:00:08;16.92;;;6.25;;
35110;SDS011;21290;50.158;8.658;2023-10-09T10:02:54;29.45;;;6.47;;
35110;SDS011;21290;50.158;8.658;2023-10-09T10:05:25;23.48;;;6.95;;
35110;SDS011;21290;50.158;8.658;2023-10-09T10:07:57;22.00;;;7.38;;
35110;SDS011;21290;50.158;8.658;2023-10-09T10:10:37;15.13;;;6.25;;
35110;SDS011;21290;50.158;8.658;2023-10-09T10:13:14;23.13;;;6.10;;
35110;SDS011;21290;50.158;8.658;2023-10-09T10:19:00;21.70;;;6.40;;
35110;SDS011;21290;50.158;8.658;2023-10-09T10:21:44;19.77;;;6.18;;
35110;SDS011;21290;50.158;8.658;2023-10-09T10:35:20;18.13;;;5.65;;
35110;SDS011;21290;50.158;8.658;2023-10-09T10:37:58;14.05;;;6.18;;
35110;SDS011;21290;50.158;8.658;2023-10-09T10:40:28;18.00;;;6.22;;
35110;SDS011;21290;50.158;8.658;2023-10-09T10:43:05;22.50;;;6.45;;
35110;SDS011;21290;50.158;8.658;2023-10-09T10:46:00;19.80;;;5.82;;
35110;SDS011;21290;50.158;8.658;2023-10-09T10:48:35;29.35;;;6.63;;
35110;SDS011;21290;50.158;8.658;2023-10-09T10:51:05;19.65;;;6.35;;
35110;SDS011;21290;50.158;8.658;2023-10-09T10:53:32;17.20;;;6.18;;
35110;SDS011;21290;50.158;8.658;2023-10-09T10:56:13;18.17;;;6.10;;
35110;SDS011;21290;50.158;8.658;2023-10-09T10:58:41;20.90;;;6.15;;
35110;SDS011;21290;50.158;8.658;2023-10-09T11:01:20;16.40;;;5.85;;
35110;SDS011;21290;50.158;8.658;2023-10-09T11:03:52;15.55;;;5.65;;
35110;SDS011;21290;50.158;8.658;2023-10-09T11:06:29;13.68;;;5.47;;
35110;SDS011;21290;50.158;8.658;2023-10-09T11:09:07;15.57;;;5.72;;
35110;SDS011;21290;50.158;8.658;2023-10-09T11:11:36;13.68;;;5.18;;
35110;SDS011;21290;50.158;8.658;2023-10-09T11:14:13;16.60;;;6.07;;
35110;SDS011;21290;50.158;8.658;2023-10-09T11:16:52;17.85;;;5.25;;
35110;SDS011;21290;50.158;8.658;2023-10-09T11:19:25;25.77;;;6.47;;
35110;SDS011;21290;50.158;8.658;2023-10-09T11:21:55;14.30;;;5.30;;
35110;SDS011;21290;50.158;8.658;2023-10-09T11:24:31;24.27;;;6.13;;
35110;SDS011;21290;50.158;8.658;2023-10-09T11:29:34;13.02;;;5.93;;
35110;SDS011;21290;50.158;8.658;2023-10-09T11:32:18;13.75;;;5.35;;
35110;SDS011;21290;50.158;8.658;2023-10-09T11:35:09;14.35;;;5.60;;
35110;SDS011;21290;50.158;8.658;2023-10-09T11:37:55;24.45;;;6.80;;
35110;SDS011;21290;50.158;8.658;2023-10-09T11:40:32;21.05;;;5.68;;
35110;SDS011;21290;50.158;8.658;2023-10-09T11:43:20;15.32;;;6.30;;
35110;SDS011;21290;50.158;8.658;2023-10-09T11:46:09;14.93;;;6.05;;
35110;SDS011;21290;50.158;8.658;2023-10-09T11:48:40;14.48;;;5.50;;
35110;SDS011;21290;50.158;8.658;2023-10-09T11:51:13;20.65;;;5.55;;
35110;SDS011;21290;50.158;8.658;2023-10-09T11:53:45;16.42;;;5.72;;
35110;SDS011;21290;50.158;8.658;2023-10-09T11:56:16;17.73;;;5.53;;
35110;SDS011;21290;50.158;8.658;2023-10-09T11:58:46;12.32;;;4.93;;
35110;SDS011;21290;50.158;8.658;2023-10-09T12:01:16;15.40;;;5.28;;
35110;SDS011;21290;50.158;8.658;2023-10-09T12:03:49;18.30;;;5.70;;
35110;SDS011;21290;50.158;8.658;2023-10-09T12:06:18;15.25;;;5.70;;
35110;SDS011;21290;50.158;8.658;2023-10-09T12:08:48;24.33;;;5.78;;
35110;SDS011;21290;50.158;8.658;2023-10-09T12:11:16;16.95;;;5.13;;
35110;SDS011;21290;50.158;8.658;2023-10-09T12:14:15;14.60;;;5.25;;
35110;SDS011;21290;50.158;8.658;2023-10-09T12:16:42;15.48;;;5.20;;
35110;SDS011;21290;50.158;8.658;2023-10-09T12:19:16;18.67;;;5.85;;
35110;SDS011;21290;50.158;8.658;2023-10-09T12:21:43;15.02;;;5.65;;
35110;SDS011;21290;50.158;8.658;2023-10-09T12:24:09;22.85;;;5.82;;
35110;SDS011;21290;50.158;8.658;2023-10-09T12:26:38;13.52;;;5.15;;
35110;SDS011;21290;50.158;8.658;2023-10-09T12:29:06;17.58;;;5.15;;
35110;SDS011;21290;50.158;8.658;2023-10-09T12:31:38;14.32;;;4.60;;
35110;SDS011;21290;50.158;8.658;2023-10-09T12:34:04;11.80;;;4.88;;
35110;SDS011;21290;50.158;8.658;2023-10-09T12:36:31;16.60;;;5.00;;
35110;SDS011;21290;50.158;8.658;2023-10-09T12:39:03;15.98;;;4.82;;
35110;SDS011;21290;50.158;8.658;2023-10-09T12:41:31;9.15;;;5.03;;
35110;SDS011;21290;50.158;8.658;2023-10-09T12:44:00;17.23;;;5.40;;
35110;SDS011;21290;50.158;8.658;2023-10-09T12:46:27;16.20;;;5.75;;
35110;SDS011;21290;50.158;8.658;2023-10-09T12:48:58;9.82;;;4.90;;
35110;SDS011;21290;50.158;8.658;2023-10-09T12:51:27;16.17;;;5.38;;
35110;SDS011;21290;50.158;8.658;2023-10-09T12:53:57;16.35;;;5.18;;
35110;SDS011;21290;50.158;8.658;2023-10-09T12:56:24;20.98;;;5.50;;
35110;SDS011;21290;50.158;8.658;2023-10-09T12:59:05;14.43;;;5.05;;
35110;SDS011;21290;50.158;8.658;2023-10-09T13:01:33;11.95;;;4.72;;
35110;SDS011;21290;50.158;8.658;2023-10-09T13:04:09;19.02;;;5.70;;
35110;SDS011;21290;50.158;8.658;2023-10-09T13:06:42;11.10;;;5.25;;
35110;SDS011;21290;50.158;8.658;2023-10-09T13:09:10;12.40;;;4.88;;
35110;SDS011;21290;50.158;8.658;2023-10-09T13:11:40;16.52;;;4.95;;
35110;SDS011;21290;50.158;8.658;2023-10-09T13:14:07;11.98;;;5.45;;
35110;SDS011;21290;50.158;8.658;2023-10-09T13:16:48;21.38;;;5.60;;
35110;SDS011;21290;50.158;8.658;2023-10-09T13:19:19;14.80;;;5.18;;
35110;SDS011;21290;50.158;8.658;2023-10-09T13:21:50;17.20;;;5.03;;
35110;SDS011;21290;50.158;8.658;2023-10-09T13:24:17;12.10;;;5.20;;
35110;SDS011;21290;50.158;8.658;2023-10-09T13:26:44;13.43;;;5.05;;
35110;SDS011;21290;50.158;8.658;2023-10-09T13:29:13;12.88;;;5.22;;
35110;SDS011;21290;50.158;8.658;2023-10-09T13:31:43;18.83;;;5.35;;
35110;SDS011;21290;50.158;8.658;2023-10-09T13:34:14;11.23;;;4.95;;
35110;SDS011;21290;50.158;8.658;2023-10-09T13:36:42;17.85;;;5.40;;
35110;SDS011;21290;50.158;8.658;2023-10-09T13:39:19;12.13;;;4.90;;
35110;SDS011;21290;50.158;8.658;2023-10-09T13:41:58;15.18;;;5.85;;
35110;SDS011;21290;50.158;8.658;2023-10-09T13:44:27;11.27;;;4.75;;
35110;SDS011;21290;50.158;8.658;2023-10-09T13:46:56;9.95;;;4.93;;
35110;SDS011;21290;50.158;8.658;2023-10-09T13:49:24;16.45;;;5.28;;
35110;SDS011;21290;50.158;8.658;2023-10-09T13:52:00;16.75;;;6.20;;
35110;SDS011;21290;50.158;8.658;2023-10-09T13:54:29;22.27;;;5.85;;
35110;SDS011;21290;50.158;8.658;2023-10-09T13:56:59;10.13;;;5.03;;
35110;SDS011;21290;50.158;8.658;2023-10-09T13:59:30;16.58;;;5.85;;
35110;SDS011;21290;50.158;8.658;2023-10-09T14:01:58;20.42;;;4.97;;
35110;SDS011;21290;50.158;8.658;2023-10-09T14:04:26;10.65;;;4.55;;
35110;SDS011;21290;50.158;8.658;2023-10-09T14:06:52;19.35;;;5.53;;
35110;SDS011;21290;50.158;8.658;2023-10-09T14:09:26;12.18;;;5.53;;
35110;SDS011;21290;50.158;8.658;2023-10-09T14:14:38;17.13;;;5.30;;
35110;SDS011;21290;50.158;8.658;2023-10-09T14:17:13;11.43;;;6.03;;
35110;SDS011;21290;50.158;8.658;2023-10-09T14:19:44;13.82;;;5.47;;
35110;SDS011;21290;50.158;8.658;2023-10-09T14:22:14;13.98;;;5.03;;
35110;SDS011;21290;50.158;8.658;2023-10-09T14:24:45;19.30;;;9.95;;
35110;SDS011;21290;50.158;8.658;2023-10-09T14:27:13;13.90;;;5.43;;
35110;SDS011;21290;50.158;8.658;2023-10-09T14:29:46;13.10;;;5.15;;
35110;SDS011;21290;50.158;8.658;2023-10-09T14:32:14;15.35;;;8.10;;
35110;SDS011;21290;50.158;8.658;2023-10-09T14:34:43;19.87;;;5.67;;
35110;SDS011;21290;50.158;8.658;2023-10-09T14:37:16;15.88;;;4.80;;
35110;SDS011;21290;50.158;8.658;2023-10-09T14:39:47;14.18;;;5.10;;
35110;SDS011;21290;50.158;8.658;2023-10-09T14:42:17;11.65;;;5.15;;
35110;SDS011;21290;50.158;8.658;2023-10-09T14:44:44;10.75;;;4.63;;
35110;SDS011;21290;50.158;8.658;2023-10-09T14:47:14;13.05;;;5.47;;
35110;SDS011;21290;50.158;8.658;2023-10-09T14:49:41;15.43;;;6.72;;
35110;SDS011;21290;50.158;8.658;2023-10-09T14:52:13;11.32;;;5.30;;
35110;SDS011;21290;50.158;8.658;2023-10-09T14:54:46;12.70;;;5.28;;
35110;SDS011;21290;50.158;8.658;2023-10-09T14:57:13;12.32;;;5.95;;
35110;SDS011;21290;50.158;8.658;2023-10-09T14:59:40;19.42;;;6.50;;
35110;SDS011;21290;50.158;8.658;2023-10-09T15:02:10;18.75;;;5.57;;
35110;SDS011;21290;50.158;8.658;2023-10-09T15:04:39;10.38;;;5.03;;
35110;SDS011;21290;50.158;8.658;2023-10-09T15:07:06;18.10;;;5.78;;
35110;SDS011;21290;50.158;8.658;2023-10-09T15:09:33;14.45;;;5.53;;
35110;SDS011;21290;50.158;8.658;2023-10-09T15:12:06;11.15;;;4.95;;
35110;SDS011;21290;50.158;8.658;2023-10-09T15:14:33;11.38;;;4.97;;
35110;SDS011;21290;50.158;8.658;2023-10-09T15:17:00;9.82;;;5.18;;
35110;SDS011;21290;50.158;8.658;2023-10-09T15:19:28;11.95;;;4.85;;
35110;SDS011;21290;50.158;8.658;2023-10-09T15:21:59;11.25;;;4.40;;
35110;SDS011;21290;50.158;8.658;2023-10-09T15:24:26;12.48;;;4.63;;
35110;SDS011;21290;50.158;8.658;2023-10-09T15:26:57;10.07;;;4.45;;
35110;SDS011;21290;50.158;8.658;2023-10-09T15:29:25;9.70;;;4.38;;
35110;SDS011;21290;50.158;8.658;2023-10-09T15:32:00;11.55;;;4.65;;
35110;SDS011;21290;50.158;8.658;2023-10-09T15:34:31;11.88;;;4.57;;
35110;SDS011;21290;50.158;8.658;2023-10-09T15:41:58;8.13;;;4.85;;
35110;SDS011;21290;50.158;8.658;2023-10-09T15:44:24;12.85;;;4.90;;
35110;SDS011;21290;50.158;8.658;2023-10-09T15:46:53;11.10;;;5.60;;
35110;SDS011;21290;50.158;8.658;2023-10-09T15:49:26;8.10;;;4.95;;
35110;SDS011;21290;50.158;8.658;2023-10-09T15:51:53;8.95;;;5.03;;
35110;SDS011;21290;50.158;8.658;2023-10-09T15:54:20;12.10;;;5.47;;
35110;SDS011;21290;50.158;8.658;2023-10-09T15:56:47;13.05;;;5.68;;
35110;SDS011;21290;50.158;8.658;2023-10-09T15:59:34;13.50;;;5.70;;